sensor_id;sensor_type;location;lat;lon;timestamp;temperature;humidity
35129;DHT22;21301;43.626;10.580;2023-07-28T00:00:10;22.70;99.90
35129;DHT22;21301;43.626;10.580;2023-07-28T00:02:41;22.60;99.90
35129;DHT22;21301;43.626;10.580;2023-07-28T00:05:07;22.50;99.90
35129;DHT22;21301;43.626;10.580;2023-07-28T00:07:34;22.30;99.90
35129;DHT22;21301;43.626;10.580;2023-07-28T00:10:03;22.30;99.90
35129;DHT22;21301;43.626;10.580;2023-07-28T00:12:30;22.30;1.00
35129;DHT22;21301;43.626;10.580;2023-07-28T00:14:56;22.30;1.00
35129;DHT22;21301;43.626;10.580;2023-07-28T00:17:22;22.30;1.00
35129;DHT22;21301;43.626;10.580;2023-07-28T00:19:48;22.10;1.00
35129;DHT22;21301;43.626;10.580;2023-07-28T00:22:14;21.90;1.00
35129;DHT22;21301;43.626;10.580;2023-07-28T00:24:39;21.80;2.70
35129;DHT22;21301;43.626;10.580;2023-07-28T00:27:05;21.60;22.90
35129;DHT22;21301;43.626;10.580;2023-07-28T00:29:32;21.60;42.70
35129;DHT22;21301;43.626;10.580;2023-07-28T00:31:58;21.50;54.10
35129;DHT22;21301;43.626;10.580;2023-07-28T00:34:23;21.30;75.80
35129;DHT22;21301;43.626;10.580;2023-07-28T00:36:50;21.20;90.30
35129;DHT22;21301;43.626;10.580;2023-07-28T00:39:16;21.20;97.00
35129;DHT22;21301;43.626;10.580;2023-07-28T00:41:42;21.20;99.90
35129;DHT22;21301;43.626;10.580;2023-07-28T00:44:07;21.20;99.90
35129;DHT22;21301;43.626;10.580;2023-07-28T00:46:33;21.20;99.90
35129;DHT22;21301;43.626;10.580;2023-07-28T00:49:00;21.20;99.90
35129;DHT22;21301;43.626;10.580;2023-07-28T00:51:27;21.10;99.90
35129;DHT22;21301;43.626;10.580;2023-07-28T00:53:53;21.10;99.90
35129;DHT22;21301;43.626;10.580;2023-07-28T00:56:21;21.10;99.90
35129;DHT22;21301;43.626;10.580;2023-07-28T00:58:48;21.10;99.90
35129;DHT22;21301;43.626;10.580;2023-07-28T01:01:13;21.20;99.90
35129;DHT22;21301;43.626;10.580;2023-07-28T01:03:39;21.10;99.90
35129;DHT22;21301;43.626;10.580;2023-07-28T01:06:24;21.10;99.90
35129;DHT22;21301;43.626;10.580;2023-07-28T01:09:02;21.10;99.90
35129;DHT22;21301;43.626;10.580;2023-07-28T01:11:31;21.10;99.90
35129;DHT22;21301;43.626;10.580;2023-07-28T01:14:01;21.00;99.90
35129;DHT22;21301;43.626;10.580;2023-07-28T01:16:28;21.00;99.90
35129;DHT22;21301;43.626;10.580;2023-07-28T01:18:54;20.90;99.90
35129;DHT22;21301;43.626;10.580;2023-07-28T01:21:22;20.90;99.90
35129;DHT22;21301;43.626;10.580;2023-07-28T01:26:40;20.80;99.90
35129;DHT22;21301;43.626;10.580;2023-07-28T01:29:07;20.80;99.90
35129;DHT22;21301;43.626;10.580;2023-07-28T01:31:34;20.70;99.90
35129;DHT22;21301;43.626;10.580;2023-07-28T01:34:00;20.70;99.90
35129;DHT22;21301;43.626;10.580;2023-07-28T01:36:26;20.80;99.90
35129;DHT22;21301;43.626;10.580;2023-07-28T01:38:52;20.80;99.90
35129;DHT22;21301;43.626;10.580;2023-07-28T01:41:18;20.80;99.90
35129;DHT22;21301;43.626;10.580;2023-07-28T01:43:44;20.70;99.90
35129;DHT22;21301;43.626;10.580;2023-07-28T01:46:10;20.70;99.90
35129;DHT22;21301;43.626;10.580;2023-07-28T01:48:35;20.80;99.90
35129;DHT22;21301;43.626;10.580;2023-07-28T01:51:01;20.80;99.90
35129;DHT22;21301;43.626;10.580;2023-07-28T01:53:28;20.80;99.90
35129;DHT22;21301;43.626;10.580;2023-07-28T01:55:54;20.80;99.90
35129;DHT22;21301;43.626;10.580;2023-07-28T01:58:20;20.80;99.90
35129;DHT22;21301;43.626;10.580;2023-07-28T02:00:46;20.70;99.90
35129;DHT22;21301;43.626;10.580;2023-07-28T02:03:13;20.80;99.90
35129;DHT22;21301;43.626;10.580;2023-07-28T02:05:38;20.60;99.90
35129;DHT22;21301;43.626;10.580;2023-07-28T02:08:05;20.60;99.90
35129;DHT22;21301;43.626;10.580;2023-07-28T02:10:31;20.60;99.90
35129;DHT22;21301;43.626;10.580;2023-07-28T02:12:57;20.60;99.90
35129;DHT22;21301;43.626;10.580;2023-07-28T02:15:27;20.50;99.90
35129;DHT22;21301;43.626;10.580;2023-07-28T02:17:55;20.60;99.90
35129;DHT22;21301;43.626;10.580;2023-07-28T02:20:20;20.60;99.90
35129;DHT22;21301;43.626;10.580;2023-07-28T02:22:46;20.60;99.90
35129;DHT22;21301;43.626;10.580;2023-07-28T02:25:13;20.70;99.90
35129;DHT22;21301;43.626;10.580;2023-07-28T02:27:38;20.70;99.90
35129;DHT22;21301;43.626;10.580;2023-07-28T02:30:06;20.80;99.90
35129;DHT22;21301;43.626;10.580;2023-07-28T02:32:32;20.80;99.90
35129;DHT22;21301;43.626;10.580;2023-07-28T02:34:58;20.90;99.90
35129;DHT22;21301;43.626;10.580;2023-07-28T02:37:26;20.90;99.90
35129;DHT22;21301;43.626;10.580;2023-07-28T02:39:52;20.80;99.90
35129;DHT22;21301;43.626;10.580;2023-07-28T02:42:18;20.80;99.90
35129;DHT22;21301;43.626;10.580;2023-07-28T02:44:45;20.80;99.90
35129;DHT22;21301;43.626;10.580;2023-07-28T02:47:11;20.70;99.90
35129;DHT22;21301;43.626;10.580;2023-07-28T02:49:40;20.60;99.90
35129;DHT22;21301;43.626;10.580;2023-07-28T02:52:06;20.60;99.90
35129;DHT22;21301;43.626;10.580;2023-07-28T02:54:32;20.60;99.90
35129;DHT22;21301;43.626;10.580;2023-07-28T02:56:58;20.60;99.90
35129;DHT22;21301;43.626;10.580;2023-07-28T02:59:24;20.50;99.90
35129;DHT22;21301;43.626;10.580;2023-07-28T03:01:50;20.60;99.90
35129;DHT22;21301;43.626;10.580;2023-07-28T03:04:19;20.50;99.90
35129;DHT22;21301;43.626;10.580;2023-07-28T03:07:06;20.60;99.90
35129;DHT22;21301;43.626;10.580;2023-07-28T03:09:35;20.70;99.90
35129;DHT22;21301;43.626;10.580;2023-07-28T03:12:02;20.90;99.90
35129;DHT22;21301;43.626;10.580;2023-07-28T03:14:28;21.00;99.90
35129;DHT22;21301;43.626;10.580;2023-07-28T03:16:58;21.10;99.90
35129;DHT22;21301;43.626;10.580;2023-07-28T03:19:28;21.10;99.90
35129;DHT22;21301;43.626;10.580;2023-07-28T03:21:58;21.20;99.90
35129;DHT22;21301;43.626;10.580;2023-07-28T03:24:24;20.90;99.90
35129;DHT22;21301;43.626;10.580;2023-07-28T03:26:50;20.90;99.90
35129;DHT22;21301;43.626;10.580;2023-07-28T03:29:15;20.80;99.90
35129;DHT22;21301;43.626;10.580;2023-07-28T03:31:41;20.80;99.90
35129;DHT22;21301;43.626;10.580;2023-07-28T03:34:07;20.90;99.90
35129;DHT22;21301;43.626;10.580;2023-07-28T03:36:33;20.90;99.90
35129;DHT22;21301;43.626;10.580;2023-07-28T03:39:01;20.80;99.90
35129;DHT22;21301;43.626;10.580;2023-07-28T03:41:27;20.60;99.90
35129;DHT22;21301;43.626;10.580;2023-07-28T03:43:54;20.50;99.90
35129;DHT22;21301;43.626;10.580;2023-07-28T03:46:20;20.50;99.90
35129;DHT22;21301;43.626;10.580;2023-07-28T03:48:46;20.30;99.90
35129;DHT22;21301;43.626;10.580;2023-07-28T03:51:12;20.40;99.90
35129;DHT22;21301;43.626;10.580;2023-07-28T03:53:38;20.20;99.90
35129;DHT22;21301;43.626;10.580;2023-07-28T03:56:04;20.20;99.90
35129;DHT22;21301;43.626;10.580;2023-07-28T03:58:30;20.20;99.90
35129;DHT22;21301;43.626;10.580;2023-07-28T04:00:56;20.10;99.90
35129;DHT22;21301;43.626;10.580;2023-07-28T04:03:24;20.00;99.90
35129;DHT22;21301;43.626;10.580;2023-07-28T04:05:51;20.00;99.90
35129;DHT22;21301;43.626;10.580;2023-07-28T04:08:18;20.00;99.90
35129;DHT22;21301;43.626;10.580;2023-07-28T04:10:46;20.00;99.90
35129;DHT22;21301;43.626;10.580;2023-07-28T04:13:13;20.10;99.90
35129;DHT22;21301;43.626;10.580;2023-07-28T04:15:41;20.30;99.90
35129;DHT22;21301;43.626;10.580;2023-07-28T04:18:07;20.40;99.90
35129;DHT22;21301;43.626;10.580;2023-07-28T04:20:34;20.50;99.90
35129;DHT22;21301;43.626;10.580;2023-07-28T04:23:00;20.50;99.90
35129;DHT22;21301;43.626;10.580;2023-07-28T04:25:30;20.60;99.90
35129;DHT22;21301;43.626;10.580;2023-07-28T04:27:56;20.90;99.90
35129;DHT22;21301;43.626;10.580;2023-07-28T04:30:23;21.20;99.90
35129;DHT22;21301;43.626;10.580;2023-07-28T04:32:50;21.40;99.90
35129;DHT22;21301;43.626;10.580;2023-07-28T04:35:19;21.60;99.90
35129;DHT22;21301;43.626;10.580;2023-07-28T04:37:57;21.60;99.90
35129;DHT22;21301;43.626;10.580;2023-07-28T04:40:46;21.40;99.90
35129;DHT22;21301;43.626;10.580;2023-07-28T04:43:13;21.60;99.90
35129;DHT22;21301;43.626;10.580;2023-07-28T04:45:47;22.10;99.90
35129;DHT22;21301;43.626;10.580;2023-07-28T04:48:19;22.00;99.90
35129;DHT22;21301;43.626;10.580;2023-07-28T04:50:45;21.80;99.90
35129;DHT22;21301;43.626;10.580;2023-07-28T04:53:29;21.70;99.90
35129;DHT22;21301;43.626;10.580;2023-07-28T04:56:06;21.90;99.90
35129;DHT22;21301;43.626;10.580;2023-07-28T04:58:32;22.00;99.90
35129;DHT22;21301;43.626;10.580;2023-07-28T05:01:00;22.50;99.90
35129;DHT22;21301;43.626;10.580;2023-07-28T05:03:27;22.90;99.90
35129;DHT22;21301;43.626;10.580;2023-07-28T05:06:03;22.90;99.90
35129;DHT22;21301;43.626;10.580;2023-07-28T05:08:31;22.90;99.90
35129;DHT22;21301;43.626;10.580;2023-07-28T05:10:57;22.80;99.90
35129;DHT22;21301;43.626;10.580;2023-07-28T05:13:25;22.90;99.90
35129;DHT22;21301;43.626;10.580;2023-07-28T05:15:54;22.90;99.90
35129;DHT22;21301;43.626;10.580;2023-07-28T05:18:40;22.80;99.90
35129;DHT22;21301;43.626;10.580;2023-07-28T05:21:31;22.70;99.90
35129;DHT22;21301;43.626;10.580;2023-07-28T05:23:58;22.70;99.90
35129;DHT22;21301;43.626;10.580;2023-07-28T05:26:25;22.50;99.90
35129;DHT22;21301;43.626;10.580;2023-07-28T05:28:51;22.40;99.90
35129;DHT22;21301;43.626;10.580;2023-07-28T05:31:17;22.20;99.90
35129;DHT22;21301;43.626;10.580;2023-07-28T05:33:43;22.10;99.90
35129;DHT22;21301;43.626;10.580;2023-07-28T05:36:09;22.10;99.90
35129;DHT22;21301;43.626;10.580;2023-07-28T05:38:35;22.10;99.90
35129;DHT22;21301;43.626;10.580;2023-07-28T05:41:02;22.10;99.90
35129;DHT22;21301;43.626;10.580;2023-07-28T05:43:30;22.00;99.90
35129;DHT22;21301;43.626;10.580;2023-07-28T05:45:59;22.00;99.90
35129;DHT22;21301;43.626;10.580;2023-07-28T05:48:32;22.10;99.90
35129;DHT22;21301;43.626;10.580;2023-07-28T05:50:58;22.40;98.60
35129;DHT22;21301;43.626;10.580;2023-07-28T05:53:24;22.70;95.70
35129;DHT22;21301;43.626;10.580;2023-07-28T05:55:59;22.90;91.90
35129;DHT22;21301;43.626;10.580;2023-07-28T05:58:30;23.10;73.10
35129;DHT22;21301;43.626;10.580;2023-07-28T06:00:56;23.20;73.20
35129;DHT22;21301;43.626;10.580;2023-07-28T06:03:45;23.20;74.10
35129;DHT22;21301;43.626;10.580;2023-07-28T06:06:16;22.90;79.90
35129;DHT22;21301;43.626;10.580;2023-07-28T06:08:42;22.80;81.90
35129;DHT22;21301;43.626;10.580;2023-07-28T06:11:09;22.70;84.80
35129;DHT22;21301;43.626;10.580;2023-07-28T06:13:35;22.60;89.90
35129;DHT22;21301;43.626;10.580;2023-07-28T06:16:03;22.50;91.40
35129;DHT22;21301;43.626;10.580;2023-07-28T06:18:29;22.30;95.30
35129;DHT22;21301;43.626;10.580;2023-07-28T06:21:07;22.10;99.30
35129;DHT22;21301;43.626;10.580;2023-07-28T06:23:33;22.00;99.90
35129;DHT22;21301;43.626;10.580;2023-07-28T06:25:59;22.00;99.90
35129;DHT22;21301;43.626;10.580;2023-07-28T06:28:25;22.00;99.90
35129;DHT22;21301;43.626;10.580;2023-07-28T06:30:56;22.00;99.90
35129;DHT22;21301;43.626;10.580;2023-07-28T06:33:27;21.90;99.90
35129;DHT22;21301;43.626;10.580;2023-07-28T06:35:53;21.90;99.90
35129;DHT22;21301;43.626;10.580;2023-07-28T06:38:19;21.90;99.90
35129;DHT22;21301;43.626;10.580;2023-07-28T06:40:45;21.90;99.90
35129;DHT22;21301;43.626;10.580;2023-07-28T06:43:11;21.90;99.90
35129;DHT22;21301;43.626;10.580;2023-07-28T06:45:40;21.90;99.90
35129;DHT22;21301;43.626;10.580;2023-07-28T06:48:07;21.90;99.90
35129;DHT22;21301;43.626;10.580;2023-07-28T06:50:32;22.10;99.90
35129;DHT22;21301;43.626;10.580;2023-07-28T06:52:59;22.10;99.90
35129;DHT22;21301;43.626;10.580;2023-07-28T06:55:26;22.10;99.60
35129;DHT22;21301;43.626;10.580;2023-07-28T06:57:51;22.20;99.30
35129;DHT22;21301;43.626;10.580;2023-07-28T07:00:19;22.20;98.70
35129;DHT22;21301;43.626;10.580;2023-07-28T07:02:45;22.10;99.90
35129;DHT22;21301;43.626;10.580;2023-07-28T07:05:10;22.20;99.90
35129;DHT22;21301;43.626;10.580;2023-07-28T07:07:37;22.20;99.90
35129;DHT22;21301;43.626;10.580;2023-07-28T07:10:04;22.30;99.90
35129;DHT22;21301;43.626;10.580;2023-07-28T07:12:30;22.40;99.90
35129;DHT22;21301;43.626;10.580;2023-07-28T07:14:56;22.20;99.90
35129;DHT22;21301;43.626;10.580;2023-07-28T07:17:22;22.30;99.60
35129;DHT22;21301;43.626;10.580;2023-07-28T07:19:48;22.30;96.40
35129;DHT22;21301;43.626;10.580;2023-07-28T07:22:13;22.30;95.30
35129;DHT22;21301;43.626;10.580;2023-07-28T07:24:39;22.30;95.70
35129;DHT22;21301;43.626;10.580;2023-07-28T07:27:05;22.40;95.50
35129;DHT22;21301;43.626;10.580;2023-07-28T07:29:31;22.40;94.90
35129;DHT22;21301;43.626;10.580;2023-07-28T07:31:57;22.50;94.40
35129;DHT22;21301;43.626;10.580;2023-07-28T07:34:23;22.60;94.50
35129;DHT22;21301;43.626;10.580;2023-07-28T07:36:49;22.90;92.20
35129;DHT22;21301;43.626;10.580;2023-07-28T07:39:16;23.20;83.70
35129;DHT22;21301;43.626;10.580;2023-07-28T07:41:43;23.50;75.90
35129;DHT22;21301;43.626;10.580;2023-07-28T07:44:09;23.60;61.60
35129;DHT22;21301;43.626;10.580;2023-07-28T07:46:35;23.70;55.50
35129;DHT22;21301;43.626;10.580;2023-07-28T07:49:01;23.90;46.80
35129;DHT22;21301;43.626;10.580;2023-07-28T07:51:31;24.10;39.40
35129;DHT22;21301;43.626;10.580;2023-07-28T07:54:00;24.10;32.00
35129;DHT22;21301;43.626;10.580;2023-07-28T07:56:29;24.30;22.20
35129;DHT22;21301;43.626;10.580;2023-07-28T07:58:56;24.50;15.40
35129;DHT22;21301;43.626;10.580;2023-07-28T08:01:23;24.50;10.10
35129;DHT22;21301;43.626;10.580;2023-07-28T08:03:48;24.50;2.70
35129;DHT22;21301;43.626;10.580;2023-07-28T08:06:17;24.60;1.00
35129;DHT22;21301;43.626;10.580;2023-07-28T08:08:44;25.00;1.00
35129;DHT22;21301;43.626;10.580;2023-07-28T08:11:12;25.10;1.00
35129;DHT22;21301;43.626;10.580;2023-07-28T08:13:39;25.40;1.00
35129;DHT22;21301;43.626;10.580;2023-07-28T08:16:06;25.40;1.00
35129;DHT22;21301;43.626;10.580;2023-07-28T08:18:32;25.60;1.00
35129;DHT22;21301;43.626;10.580;2023-07-28T08:21:02;25.60;99.90
35129;DHT22;21301;43.626;10.580;2023-07-28T08:23:28;25.70;1.00
35129;DHT22;21301;43.626;10.580;2023-07-28T08:25:54;25.70;99.90
35129;DHT22;21301;43.626;10.580;2023-07-28T08:28:20;26.00;97.60
35129;DHT22;21301;43.626;10.580;2023-07-28T08:30:54;26.30;99.90
35129;DHT22;21301;43.626;10.580;2023-07-28T08:33:21;26.50;99.90
35129;DHT22;21301;43.626;10.580;2023-07-28T08:35:47;26.70;99.90
35129;DHT22;21301;43.626;10.580;2023-07-28T08:38:13;26.40;99.90
35129;DHT22;21301;43.626;10.580;2023-07-28T08:40:43;26.40;99.90
35129;DHT22;21301;43.626;10.580;2023-07-28T08:43:09;26.60;99.90
35129;DHT22;21301;43.626;10.580;2023-07-28T08:45:36;26.80;99.90
35129;DHT22;21301;43.626;10.580;2023-07-28T08:48:02;27.10;1.00
35129;DHT22;21301;43.626;10.580;2023-07-28T08:50:28;27.70;99.90
35129;DHT22;21301;43.626;10.580;2023-07-28T08:52:56;27.50;77.80
35129;DHT22;21301;43.626;10.580;2023-07-28T08:55:25;27.60;99.90
35129;DHT22;21301;43.626;10.580;2023-07-28T08:57:51;28.40;99.90
35129;DHT22;21301;43.626;10.580;2023-07-28T09:00:17;28.40;99.90
35129;DHT22;21301;43.626;10.580;2023-07-28T09:02:49;28.70;99.90
35129;DHT22;21301;43.626;10.580;2023-07-28T09:05:20;28.80;61.20
35129;DHT22;21301;43.626;10.580;2023-07-28T09:07:47;29.20;92.20
35129;DHT22;21301;43.626;10.580;2023-07-28T09:10:17;29.30;60.20
35129;DHT22;21301;43.626;10.580;2023-07-28T09:12:50;29.50;1.00
35129;DHT22;21301;43.626;10.580;2023-07-28T09:15:16;29.50;1.00
35129;DHT22;21301;43.626;10.580;2023-07-28T09:17:44;29.80;99.90
35129;DHT22;21301;43.626;10.580;2023-07-28T09:20:15;29.90;99.90
35129;DHT22;21301;43.626;10.580;2023-07-28T09:22:43;30.00;99.90
35129;DHT22;21301;43.626;10.580;2023-07-28T09:25:12;30.30;99.90
35129;DHT22;21301;43.626;10.580;2023-07-28T09:27:38;30.40;99.90
35129;DHT22;21301;43.626;10.580;2023-07-28T09:30:05;30.00;99.90
35129;DHT22;21301;43.626;10.580;2023-07-28T09:32:32;29.60;99.90
35129;DHT22;21301;43.626;10.580;2023-07-28T09:35:09;29.90;99.90
35129;DHT22;21301;43.626;10.580;2023-07-28T09:37:42;29.50;99.90
35129;DHT22;21301;43.626;10.580;2023-07-28T09:40:12;29.20;99.90
35129;DHT22;21301;43.626;10.580;2023-07-28T09:42:39;29.60;99.90
35129;DHT22;21301;43.626;10.580;2023-07-28T09:45:06;29.60;99.90
35129;DHT22;21301;43.626;10.580;2023-07-28T09:47:34;29.50;99.90
35129;DHT22;21301;43.626;10.580;2023-07-28T09:50:06;29.50;99.90
35129;DHT22;21301;43.626;10.580;2023-07-28T09:52:37;30.00;99.90
35129;DHT22;21301;43.626;10.580;2023-07-28T09:55:08;30.20;99.90
35129;DHT22;21301;43.626;10.580;2023-07-28T09:57:46;30.40;99.90
35129;DHT22;21301;43.626;10.580;2023-07-28T10:00:13;30.10;99.90
35129;DHT22;21301;43.626;10.580;2023-07-28T10:02:41;30.20;99.90
35129;DHT22;21301;43.626;10.580;2023-07-28T10:05:07;30.60;99.90
35129;DHT22;21301;43.626;10.580;2023-07-28T10:07:35;30.30;99.90
35129;DHT22;21301;43.626;10.580;2023-07-28T10:10:04;29.90;99.90
35129;DHT22;21301;43.626;10.580;2023-07-28T10:12:49;30.00;99.90
35129;DHT22;21301;43.626;10.580;2023-07-28T10:15:17;30.20;99.90
35129;DHT22;21301;43.626;10.580;2023-07-28T10:17:55;30.30;99.90
35129;DHT22;21301;43.626;10.580;2023-07-28T10:23:13;30.60;99.90
35129;DHT22;21301;43.626;10.580;2023-07-28T10:25:40;30.80;99.90
35129;DHT22;21301;43.626;10.580;2023-07-28T10:28:24;30.60;99.90
35129;DHT22;21301;43.626;10.580;2023-07-28T10:30:54;30.20;99.90
35129;DHT22;21301;43.626;10.580;2023-07-28T10:36:10;30.40;99.90
35129;DHT22;21301;43.626;10.580;2023-07-28T10:38:38;30.60;99.90
35129;DHT22;21301;43.626;10.580;2023-07-28T10:41:11;30.40;99.90
35129;DHT22;21301;43.626;10.580;2023-07-28T10:43:37;30.70;99.90
35129;DHT22;21301;43.626;10.580;2023-07-28T10:46:05;31.00;99.90
35129;DHT22;21301;43.626;10.580;2023-07-28T10:48:34;31.10;99.90
35129;DHT22;21301;43.626;10.580;2023-07-28T10:51:03;30.70;99.90
35129;DHT22;21301;43.626;10.580;2023-07-28T10:53:29;30.90;99.90
35129;DHT22;21301;43.626;10.580;2023-07-28T10:55:56;31.10;99.90
35129;DHT22;21301;43.626;10.580;2023-07-28T10:58:22;30.30;99.90
35129;DHT22;21301;43.626;10.580;2023-07-28T11:00:50;31.20;99.90
35129;DHT22;21301;43.626;10.580;2023-07-28T11:03:18;30.90;99.90
35129;DHT22;21301;43.626;10.580;2023-07-28T11:05:45;30.60;99.90
35129;DHT22;21301;43.626;10.580;2023-07-28T11:08:13;30.00;99.90
35129;DHT22;21301;43.626;10.580;2023-07-28T11:10:39;30.30;99.90
35129;DHT22;21301;43.626;10.580;2023-07-28T11:13:07;29.90;99.90
35129;DHT22;21301;43.626;10.580;2023-07-28T11:15:33;30.40;99.90
35129;DHT22;21301;43.626;10.580;2023-07-28T11:18:00;30.70;99.90
35129;DHT22;21301;43.626;10.580;2023-07-28T11:20:28;30.40;99.90
35129;DHT22;21301;43.626;10.580;2023-07-28T11:23:02;30.50;99.90
35129;DHT22;21301;43.626;10.580;2023-07-28T11:25:33;30.50;99.90
35129;DHT22;21301;43.626;10.580;2023-07-28T11:28:04;30.80;99.90
35129;DHT22;21301;43.626;10.580;2023-07-28T11:30:32;30.70;99.90
35129;DHT22;21301;43.626;10.580;2023-07-28T11:33:03;30.60;99.90
35129;DHT22;21301;43.626;10.580;2023-07-28T11:35:29;31.00;99.90
35129;DHT22;21301;43.626;10.580;2023-07-28T11:37:56;30.90;99.90
35129;DHT22;21301;43.626;10.580;2023-07-28T11:40:22;31.30;99.90
35129;DHT22;21301;43.626;10.580;2023-07-28T11:42:53;31.40;99.90
35129;DHT22;21301;43.626;10.580;2023-07-28T11:45:20;31.00;99.90
35129;DHT22;21301;43.626;10.580;2023-07-28T11:48:07;31.70;99.90
35129;DHT22;21301;43.626;10.580;2023-07-28T11:50:40;31.40;99.90
35129;DHT22;21301;43.626;10.580;2023-07-28T11:53:09;31.10;99.90
35129;DHT22;21301;43.626;10.580;2023-07-28T11:55:38;30.40;99.90
35129;DHT22;21301;43.626;10.580;2023-07-28T11:58:06;30.70;99.90
35129;DHT22;21301;43.626;10.580;2023-07-28T12:00:40;31.00;99.90
35129;DHT22;21301;43.626;10.580;2023-07-28T12:03:12;31.00;99.90
35129;DHT22;21301;43.626;10.580;2023-07-28T12:05:41;30.90;99.90
35129;DHT22;21301;43.626;10.580;2023-07-28T12:08:07;30.80;99.90
35129;DHT22;21301;43.626;10.580;2023-07-28T12:10:35;30.90;99.90
35129;DHT22;21301;43.626;10.580;2023-07-28T12:13:07;30.80;99.90
35129;DHT22;21301;43.626;10.580;2023-07-28T12:15:34;31.00;99.90
35129;DHT22;21301;43.626;10.580;2023-07-28T12:18:15;30.80;99.90
35129;DHT22;21301;43.626;10.580;2023-07-28T12:20:44;30.90;99.90
35129;DHT22;21301;43.626;10.580;2023-07-28T12:23:20;30.10;99.90
35129;DHT22;21301;43.626;10.580;2023-07-28T12:25:48;30.10;99.90
35129;DHT22;21301;43.626;10.580;2023-07-28T12:28:15;30.90;99.90
35129;DHT22;21301;43.626;10.580;2023-07-28T12:30:41;31.40;99.90
35129;DHT22;21301;43.626;10.580;2023-07-28T12:33:07;31.10;99.90
35129;DHT22;21301;43.626;10.580;2023-07-28T12:35:36;30.70;99.90
35129;DHT22;21301;43.626;10.580;2023-07-28T12:38:03;31.00;99.90
35129;DHT22;21301;43.626;10.580;2023-07-28T12:40:34;31.30;99.90
35129;DHT22;21301;43.626;10.580;2023-07-28T12:43:02;31.00;99.90
35129;DHT22;21301;43.626;10.580;2023-07-28T12:45:31;31.20;99.90
35129;DHT22;21301;43.626;10.580;2023-07-28T12:47:57;31.30;99.90
35129;DHT22;21301;43.626;10.580;2023-07-28T12:50:23;31.40;99.90
35129;DHT22;21301;43.626;10.580;2023-07-28T12:52:50;31.20;99.90
35129;DHT22;21301;43.626;10.580;2023-07-28T12:55:17;31.30;99.90
35129;DHT22;21301;43.626;10.580;2023-07-28T12:57:46;31.30;99.90
35129;DHT22;21301;43.626;10.580;2023-07-28T13:00:16;31.50;99.90
35129;DHT22;21301;43.626;10.580;2023-07-28T13:02:43;30.50;99.90
35129;DHT22;21301;43.626;10.580;2023-07-28T13:05:11;30.60;99.90
35129;DHT22;21301;43.626;10.580;2023-07-28T13:07:38;30.70;99.90
35129;DHT22;21301;43.626;10.580;2023-07-28T13:10:08;30.60;99.90
35129;DHT22;21301;43.626;10.580;2023-07-28T13:12:35;31.20;99.90
35129;DHT22;21301;43.626;10.580;2023-07-28T13:15:03;31.30;99.90
35129;DHT22;21301;43.626;10.580;2023-07-28T13:17:28;31.10;99.90
35129;DHT22;21301;43.626;10.580;2023-07-28T13:19:55;31.20;99.90
35129;DHT22;21301;43.626;10.580;2023-07-28T13:22:23;31.20;99.90
35129;DHT22;21301;43.626;10.580;2023-07-28T13:24:49;31.20;99.90
35129;DHT22;21301;43.626;10.580;2023-07-28T13:27:14;31.30;99.90
35129;DHT22;21301;43.626;10.580;2023-07-28T13:29:40;31.00;99.90
35129;DHT22;21301;43.626;10.580;2023-07-28T13:32:22;31.00;99.90
35129;DHT22;21301;43.626;10.580;2023-07-28T13:34:51;31.10;99.90
35129;DHT22;21301;43.626;10.580;2023-07-28T13:37:20;31.20;99.90
35129;DHT22;21301;43.626;10.580;2023-07-28T13:39:46;31.20;99.90
35129;DHT22;21301;43.626;10.580;2023-07-28T13:42:12;30.80;99.90
35129;DHT22;21301;43.626;10.580;2023-07-28T13:44:42;30.90;99.90
35129;DHT22;21301;43.626;10.580;2023-07-28T13:47:09;30.60;99.90
35129;DHT22;21301;43.626;10.580;2023-07-28T13:49:35;30.70;99.90
35129;DHT22;21301;43.626;10.580;2023-07-28T13:52:05;30.90;99.90
35129;DHT22;21301;43.626;10.580;2023-07-28T13:54:32;30.40;99.90
35129;DHT22;21301;43.626;10.580;2023-07-28T13:56:58;30.50;99.90
35129;DHT22;21301;43.626;10.580;2023-07-28T13:59:25;30.50;99.90
35129;DHT22;21301;43.626;10.580;2023-07-28T14:01:52;30.50;99.90
35129;DHT22;21301;43.626;10.580;2023-07-28T14:04:18;30.80;99.90
35129;DHT22;21301;43.626;10.580;2023-07-28T14:06:43;31.00;99.90
35129;DHT22;21301;43.626;10.580;2023-07-28T14:09:09;31.00;99.90
35129;DHT22;21301;43.626;10.580;2023-07-28T14:11:35;30.70;99.90
35129;DHT22;21301;43.626;10.580;2023-07-28T14:14:01;30.50;99.90
35129;DHT22;21301;43.626;10.580;2023-07-28T14:16:28;30.50;99.90
35129;DHT22;21301;43.626;10.580;2023-07-28T14:18:55;30.20;99.90
35129;DHT22;21301;43.626;10.580;2023-07-28T14:21:21;30.30;99.90
35129;DHT22;21301;43.626;10.580;2023-07-28T14:23:49;30.30;99.90
35129;DHT22;21301;43.626;10.580;2023-07-28T14:26:15;30.50;99.90
35129;DHT22;21301;43.626;10.580;2023-07-28T14:28:42;30.40;99.90
35129;DHT22;21301;43.626;10.580;2023-07-28T14:31:12;30.40;99.90
35129;DHT22;21301;43.626;10.580;2023-07-28T14:33:38;30.00;99.90
35129;DHT22;21301;43.626;10.580;2023-07-28T14:36:04;30.00;99.90
35129;DHT22;21301;43.626;10.580;2023-07-28T14:38:31;29.90;99.90
35129;DHT22;21301;43.626;10.580;2023-07-28T14:40:57;29.90;99.90
35129;DHT22;21301;43.626;10.580;2023-07-28T14:43:25;30.10;99.90
35129;DHT22;21301;43.626;10.580;2023-07-28T14:45:51;30.30;99.90
35129;DHT22;21301;43.626;10.580;2023-07-28T14:48:17;30.40;99.90
35129;DHT22;21301;43.626;10.580;2023-07-28T14:50:43;30.40;99.90
35129;DHT22;21301;43.626;10.580;2023-07-28T14:55:59;30.10;99.90
35129;DHT22;21301;43.626;10.580;2023-07-28T14:58:25;30.40;99.90
35129;DHT22;21301;43.626;10.580;2023-07-28T15:00:51;30.00;99.90
35129;DHT22;21301;43.626;10.580;2023-07-28T15:03:18;30.10;99.90
35129;DHT22;21301;43.626;10.580;2023-07-28T15:05:44;30.40;99.90
35129;DHT22;21301;43.626;10.580;2023-07-28T15:08:11;30.30;99.90
35129;DHT22;21301;43.626;10.580;2023-07-28T15:10:37;30.20;99.90
35129;DHT22;21301;43.626;10.580;2023-07-28T15:13:02;30.30;99.90
35129;DHT22;21301;43.626;10.580;2023-07-28T15:15:29;30.40;99.90
35129;DHT22;21301;43.626;10.580;2023-07-28T15:17:54;30.20;99.90
35129;DHT22;21301;43.626;10.580;2023-07-28T15:20:20;30.20;99.90
35129;DHT22;21301;43.626;10.580;2023-07-28T15:22:49;30.00;99.90
35129;DHT22;21301;43.626;10.580;2023-07-28T15:25:15;30.30;99.90
35129;DHT22;21301;43.626;10.580;2023-07-28T15:27:41;30.10;99.90
35129;DHT22;21301;43.626;10.580;2023-07-28T15:30:08;30.00;99.90
35129;DHT22;21301;43.626;10.580;2023-07-28T15:32:35;30.00;99.90